Time;durP1;ratioP1;P1;durP2;ratioP2;P2;SDS_P1;SDS_P2;PMS_P1;PMS_P2;Temp;Humidity;BMP_temperature;BMP_pressure;BME280_temperature;BME280_humidity;BME280_pressure;Samples;Min_cycle;Max_cycle;Signal;HPM_P1;HPM_P2
2023/04/30 00:00:39;;;;;;;5.95;5.47;;;;;;;;;;5034155;28;20033;-59
2023/04/30 00:03:04;;;;;;;5.88;5.38;;;;;;;;;;5034240;28;20076;-58
2023/04/30 00:05:30;;;;;;;5.50;5.00;;;;;;;;;;5034003;28;20104;-58
2023/04/30 00:07:55;;;;;;;5.55;5.18;;;;;;;;;;5033899;28;20392;-58
2023/04/30 00:10:20;;;;;;;6.03;5.53;;;;;;;;;;5033573;28;20498;-58
2023/04/30 00:12:46;;;;;;;5.32;4.93;;;;;;;;;;5033739;28;20380;-58
2023/04/30 00:15:11;;;;;;;5.63;5.22;;;;;;;;;;5033750;28;20029;-52
2023/04/30 00:17:36;;;;;;;5.18;4.63;;;;;;;;;;5032788;28;20029;-53
2023/04/30 00:20:02;;;;;;;5.78;5.35;;;;;;;;;;5021642;28;20164;-53
2023/04/30 00:22:27;;;;;;;6.03;5.53;;;;;;;;;;5014469;28;20033;-53
2023/04/30 00:24:53;;;;;;;5.78;5.38;;;;;;;;;;5013725;28;20041;-53
2023/04/30 00:27:18;;;;;;;5.50;5.00;;;;;;;;;;5014069;28;20037;-53
2023/04/30 00:29:43;;;;;;;4.93;4.63;;;;;;;;;;5014047;28;20068;-53
2023/04/30 00:32:09;;;;;;;5.15;4.75;;;;;;;;;;5013310;28;20038;-58
2023/04/30 00:34:34;;;;;;;5.22;4.35;;;;;;;;;;5012719;28;20030;-58
2023/04/30 00:37:00;;;;;;;5.15;4.30;;;;;;;;;;5013446;28;20152;-58
2023/04/30 00:39:25;;;;;;;4.78;3.83;;;;;;;;;;5014072;28;20456;-58
2023/04/30 00:41:50;;;;;;;3.53;3.22;;;;;;;;;;5013094;28;20025;-58
2023/04/30 00:44:15;;;;;;;3.28;3.08;;;;;;;;;;5014719;28;20026;-58
2023/04/30 00:46:41;;;;;;;4.88;3.40;;;;;;;;;;5012743;28;20030;-58
2023/04/30 00:49:07;;;;;;;2.78;2.58;;;;;;;;;;5013806;28;20453;-58
2023/04/30 00:51:33;;;;;;;2.65;2.55;;;;;;;;;;5013629;28;20026;-58
2023/04/30 00:54:00;;;;;;;2.33;2.22;;;;;;;;;;5016280;28;20476;-58
2023/04/30 00:56:25;;;;;;;2.78;2.58;;;;;;;;;;5017473;28;20049;-58
2023/04/30 00:58:53;;;;;;;2.90;2.70;;;;;;;;;;5016913;28;20060;-58
2023/04/30 01:01:18;;;;;;;2.63;2.53;;;;;;;;;;5016737;28;20130;-58
2023/04/30 01:03:44;;;;;;;2.97;2.78;;;;;;;;;;5016455;28;20049;-58
2023/04/30 01:06:10;;;;;;;3.03;2.83;;;;;;;;;;5017652;28;20056;-58
2023/04/30 01:08:35;;;;;;;4.03;3.75;;;;;;;;;;5017520;28;20462;-58
2023/04/30 01:11:22;;;;;;;4.20;3.78;;;;;;;;;;5015759;28;20516;-58
2023/04/30 01:13:52;;;;;;;4.95;4.55;;;;;;;;;;5016007;28;20029;-58
2023/04/30 01:16:20;;;;;;;5.22;4.72;;;;;;;;;;5016122;28;20029;-58
2023/04/30 01:18:47;;;;;;;5.75;5.25;;;;;;;;;;5018108;28;20535;-58
2023/04/30 01:21:14;;;;;;;6.55;5.93;;;;;;;;;;5019006;28;20100;-58
2023/04/30 01:23:42;;;;;;;6.22;5.63;;;;;;;;;;5035750;28;20040;-58
2023/04/30 01:26:08;;;;;;;5.57;5.05;;;;;;;;;;5037014;28;20460;-58
2023/04/30 01:28:35;;;;;;;6.75;6.15;;;;;;;;;;5019325;28;20022;-58
2023/04/30 01:31:01;;;;;;;7.70;6.30;;;;;;;;;;5018900;28;20337;-58
2023/04/30 01:33:26;;;;;;;6.30;5.65;;;;;;;;;;5037277;28;20108;-58
2023/04/30 01:39:26;;;;;;;6.80;6.10;;;;;;;;;;5016972;28;20022;-58
2023/04/30 01:42:01;;;;;;;6.70;5.93;;;;;;;;;;4996969;28;20034;-58
2023/04/30 01:44:30;;;;;;;6.82;6.13;;;;;;;;;;5015844;28;20510;-59
2023/04/30 01:47:08;;;;;;;6.17;5.50;;;;;;;;;;5016502;28;20034;-53
2023/04/30 01:49:42;;;;;;;5.57;5.07;;;;;;;;;;5038760;23;20061;-58
2023/04/30 01:52:27;;;;;;;5.15;4.75;;;;;;;;;;5048118;23;20106;-58
2023/04/30 01:55:12;;;;;;;5.40;4.90;;;;;;;;;;5050076;22;21098;-57
2023/04/30 01:57:41;;;;;;;4.03;3.72;;;;;;;;;;5000479;28;20033;-53
2023/04/30 02:00:09;;;;;;;4.13;3.83;;;;;;;;;;5039633;23;20045;-53
2023/04/30 02:02:38;;;;;;;3.80;3.50;;;;;;;;;;5036099;28;20512;-52
2023/04/30 02:05:04;;;;;;;4.22;3.83;;;;;;;;;;5018574;28;20040;-52
2023/04/30 02:07:39;;;;;;;4.50;4.10;;;;;;;;;;5035911;28;20372;-53
2023/04/30 02:10:06;;;;;;;4.13;3.80;;;;;;;;;;5036168;28;20025;-53
2023/04/30 02:12:31;;;;;;;4.07;3.78;;;;;;;;;;5035989;28;20029;-53
2023/04/30 02:14:57;;;;;;;3.85;3.63;;;;;;;;;;5034993;28;20048;-53
2023/04/30 02:17:22;;;;;;;4.45;4.05;;;;;;;;;;5014918;28;20045;-53
2023/04/30 02:19:48;;;;;;;3.65;3.45;;;;;;;;;;5014832;28;20519;-53
2023/04/30 02:22:13;;;;;;;4.00;3.70;;;;;;;;;;5014755;28;20053;-53
2023/04/30 02:24:38;;;;;;;3.97;3.22;;;;;;;;;;5014975;28;20040;-53
2023/04/30 02:27:04;;;;;;;4.68;3.58;;;;;;;;;;5014703;28;20365;-53
2023/04/30 02:29:29;;;;;;;4.15;3.85;;;;;;;;;;5015993;28;20037;-52
2023/04/30 02:31:57;;;;;;;4.07;3.78;;;;;;;;;;5015781;28;20070;-52
2023/04/30 02:34:22;;;;;;;4.00;3.70;;;;;;;;;;5014314;28;20021;-53
2023/04/30 02:36:47;;;;;;;4.80;4.40;;;;;;;;;;5015580;28;20022;-52
2023/04/30 02:39:13;;;;;;;4.32;4.03;;;;;;;;;;5015755;28;20045;-53
2023/04/30 02:41:38;;;;;;;3.75;3.45;;;;;;;;;;5014971;28;20026;-53
2023/04/30 02:44:03;;;;;;;4.43;4.03;;;;;;;;;;5015603;28;20029;-52
2023/04/30 02:46:29;;;;;;;3.88;3.60;;;;;;;;;;4998265;28;20043;-52
2023/04/30 02:48:54;;;;;;;4.15;3.85;;;;;;;;;;5015438;28;20034;-53
2023/04/30 02:51:20;;;;;;;4.10;3.80;;;;;;;;;;5015128;28;20033;-52
2023/04/30 02:53:45;;;;;;;5.20;4.70;;;;;;;;;;5016976;28;20108;-52
2023/04/30 02:56:10;;;;;;;5.53;5.03;;;;;;;;;;5017985;28;20022;-53
2023/04/30 02:58:36;;;;;;;5.97;5.30;;;;;;;;;;5035144;28;20464;-53
2023/04/30 03:01:01;;;;;;;5.50;5.00;;;;;;;;;;5016871;28;20041;-53
2023/04/30 03:03:26;;;;;;;5.47;4.97;;;;;;;;;;5017039;28;20071;-53
2023/04/30 03:05:52;;;;;;;5.80;5.30;;;;;;;;;;5017165;28;20029;-53
2023/04/30 03:08:17;;;;;;;5.97;5.47;;;;;;;;;;5034702;28;20068;-53
2023/04/30 03:10:42;;;;;;;6.40;5.80;;;;;;;;;;5035371;28;20376;-53
2023/04/30 03:13:08;;;;;;;6.07;5.47;;;;;;;;;;5016897;28;20030;-53
2023/04/30 03:15:33;;;;;;;6.65;6.05;;;;;;;;;;5034440;28;20109;-53
2023/04/30 03:17:59;;;;;;;7.25;6.55;;;;;;;;;;5034509;28;20025;-53
2023/04/30 03:20:24;;;;;;;6.93;6.38;;;;;;;;;;5034477;28;20091;-53
2023/04/30 03:22:49;;;;;;;7.22;6.53;;;;;;;;;;5034639;28;20045;-53
2023/04/30 03:25:15;;;;;;;7.40;6.75;;;;;;;;;;5016642;28;20033;-53
2023/04/30 03:27:41;;;;;;;8.27;7.40;;;;;;;;;;5033012;28;20452;-53
2023/04/30 03:30:06;;;;;;;7.47;6.78;;;;;;;;;;5033075;28;20083;-53
2023/04/30 03:32:32;;;;;;;7.15;6.47;;;;;;;;;;5016434;28;20124;-53
2023/04/30 03:34:57;;;;;;;7.88;7.03;;;;;;;;;;5034815;28;20025;-53
2023/04/30 03:37:25;;;;;;;7.25;6.18;;;;;;;;;;5033130;28;20024;-53
2023/04/30 03:39:50;;;;;;;5.88;5.28;;;;;;;;;;5034506;28;20112;-53
2023/04/30 03:42:16;;;;;;;4.93;4.43;;;;;;;;;;5034548;28;20456;-53
2023/04/30 03:44:41;;;;;;;4.72;4.43;;;;;;;;;;5034492;28;20037;-53
2023/04/30 03:47:07;;;;;;;3.83;3.63;;;;;;;;;;5016529;28;20029;-53
2023/04/30 03:49:32;;;;;;;3.08;2.88;;;;;;;;;;5034556;28;20038;-53
2023/04/30 03:51:58;;;;;;;2.90;2.80;;;;;;;;;;5016917;28;20026;-53
2023/04/30 03:54:23;;;;;;;3.47;3.17;;;;;;;;;;5013523;28;20030;-53
2023/04/30 03:56:49;;;;;;;3.33;3.13;;;;;;;;;;5014427;28;20026;-53
2023/04/30 03:59:14;;;;;;;2.90;2.70;;;;;;;;;;5013576;28;20488;-53
2023/04/30 04:01:40;;;;;;;3.22;3.03;;;;;;;;;;5012656;28;20056;-53
2023/04/30 04:04:06;;;;;;;3.30;3.05;;;;;;;;;;5012748;28;20084;-53
2023/04/30 04:06:32;;;;;;;3.30;3.10;;;;;;;;;;5012775;28;20030;-53
2023/04/30 04:08:58;;;;;;;4.20;3.90;;;;;;;;;;5014367;28;20026;-53
2023/04/30 04:11:23;;;;;;;4.35;4.05;;;;;;;;;;5014163;28;20030;-53
2023/04/30 04:13:49;;;;;;;5.35;4.50;;;;;;;;;;5013142;28;20413;-53
2023/04/30 04:16:15;;;;;;;6.22;5.70;;;;;;;;;;5012846;28;20105;-53
2023/04/30 04:18:40;;;;;;;6.18;4.60;;;;;;;;;;5012850;28;20125;-53
2023/04/30 04:21:06;;;;;;;5.13;4.68;;;;;;;;;;5014636;28;20409;-54
2023/04/30 04:23:31;;;;;;;7.07;6.38;;;;;;;;;;4996529;28;20030;-53
2023/04/30 04:25:57;;;;;;;7.28;6.22;;;;;;;;;;5013244;28;20049;-53
2023/04/30 04:28:23;;;;;;;7.57;6.43;;;;;;;;;;5014611;28;20021;-53
2023/04/30 04:30:48;;;;;;;7.43;6.72;;;;;;;;;;5016834;28;20040;-53
2023/04/30 04:33:14;;;;;;;7.22;6.53;;;;;;;;;;5016748;28;20064;-53
2023/04/30 04:35:39;;;;;;;9.30;6.85;;;;;;;;;;5017027;28;20029;-53
2023/04/30 04:38:04;;;;;;;8.45;6.13;;;;;;;;;;5018044;28;20079;-52
2023/04/30 04:40:31;;;;;;;7.38;6.53;;;;;;;;;;5016993;28;20033;-53
2023/04/30 04:42:56;;;;;;;7.05;6.35;;;;;;;;;;5016944;28;20038;-53
2023/04/30 04:45:22;;;;;;;7.30;6.60;;;;;;;;;;5017932;28;20034;-53
2023/04/30 04:47:49;;;;;;;8.02;7.22;;;;;;;;;;5016587;28;20032;-53
2023/04/30 04:50:15;;;;;;;7.40;6.72;;;;;;;;;;5016605;28;20026;-53
2023/04/30 04:52:41;;;;;;;8.50;7.30;;;;;;;;;;5016662;28;20088;-53
2023/04/30 04:55:06;;;;;;;8.90;7.05;;;;;;;;;;5019955;28;20375;-54
2023/04/30 04:57:32;;;;;;;8.20;7.35;;;;;;;;;;5019798;28;20088;-53
2023/04/30 04:59:57;;;;;;;8.23;7.28;;;;;;;;;;5035744;28;20454;-53
2023/04/30 05:02:23;;;;;;;8.43;7.55;;;;;;;;;;5037456;28;20037;-53
2023/04/30 05:04:49;;;;;;;11.27;7.45;;;;;;;;;;5019392;28;20450;-53
2023/04/30 05:07:18;;;;;;;8.38;7.57;;;;;;;;;;5037497;28;20467;-53
2023/04/30 05:09:44;;;;;;;10.82;8.35;;;;;;;;;;5037186;28;20064;-54
2023/04/30 05:12:10;;;;;;;9.32;8.23;;;;;;;;;;5037379;28;20025;-53
2023/04/30 05:14:36;;;;;;;7.20;6.55;;;;;;;;;;5019498;28;20143;-53
2023/04/30 05:17:01;;;;;;;9.90;7.72;;;;;;;;;;5036813;28;20041;-53
2023/04/30 05:19:27;;;;;;;8.63;7.72;;;;;;;;;;5018870;28;20029;-53
2023/04/30 05:21:52;;;;;;;13.32;8.43;;;;;;;;;;5036781;28;20087;-53
2023/04/30 05:24:17;;;;;;;10.90;7.68;;;;;;;;;;5036565;28;20440;-53
2023/04/30 05:26:43;;;;;;;9.43;8.32;;;;;;;;;;5036200;28;20065;-53
2023/04/30 05:29:10;;;;;;;9.48;8.38;;;;;;;;;;5035935;28;20029;-53
2023/04/30 05:31:35;;;;;;;8.50;7.47;;;;;;;;;;5036519;28;20021;-53
2023/04/30 05:34:01;;;;;;;7.90;6.95;;;;;;;;;;5036606;28;20112;-53
2023/04/30 05:36:27;;;;;;;9.30;7.90;;;;;;;;;;5036940;28;20022;-53
2023/04/30 05:38:52;;;;;;;9.85;7.68;;;;;;;;;;5035879;28;20100;-52
2023/04/30 05:41:18;;;;;;;10.50;8.07;;;;;;;;;;5036960;28;20075;-52
2023/04/30 05:43:43;;;;;;;10.30;7.75;;;;;;;;;;5036268;28;20029;-53
2023/04/30 05:46:08;;;;;;;8.68;7.78;;;;;;;;;;5036818;28;20013;-53
2023/04/30 05:48:34;;;;;;;12.15;8.25;;;;;;;;;;5036759;28;20026;-53
2023/04/30 05:50:59;;;;;;;9.60;7.68;;;;;;;;;;5036593;28;20056;-53
2023/04/30 05:53:25;;;;;;;10.10;7.60;;;;;;;;;;5036707;28;20040;-53
2023/04/30 05:55:50;;;;;;;9.75;7.47;;;;;;;;;;5036690;28;20037;-53
2023/04/30 05:58:15;;;;;;;12.80;7.72;;;;;;;;;;5018316;28;20038;-53
2023/04/30 06:00:41;;;;;;;8.50;7.57;;;;;;;;;;5036077;28;20068;-53
2023/04/30 06:03:06;;;;;;;12.50;8.10;;;;;;;;;;5036616;28;20037;-53
2023/04/30 06:05:32;;;;;;;8.80;7.32;;;;;;;;;;5036580;28;20367;-52
2023/04/30 06:07:57;;;;;;;12.07;9.55;;;;;;;;;;5036174;28;20088;-52
2023/04/30 06:10:23;;;;;;;8.65;7.35;;;;;;;;;;5035965;28;20116;-52
2023/04/30 06:12:48;;;;;;;9.43;7.25;;;;;;;;;;5018185;28;20025;-52
2023/04/30 06:15:14;;;;;;;9.43;7.55;;;;;;;;;;5035538;28;20099;-52
2023/04/30 06:17:39;;;;;;;9.57;7.25;;;;;;;;;;5036392;28;20025;-52
2023/04/30 06:20:05;;;;;;;8.25;7.45;;;;;;;;;;5018189;28;20036;-52
2023/04/30 06:22:31;;;;;;;8.80;7.45;;;;;;;;;;5018600;28;20135;-52
2023/04/30 06:24:57;;;;;;;8.18;7.38;;;;;;;;;;5035677;28;20112;-53
2023/04/30 06:27:22;;;;;;;11.60;7.90;;;;;;;;;;5018027;28;20124;-53
2023/04/30 06:29:47;;;;;;;10.73;6.57;;;;;;;;;;5035503;28;20025;-52
2023/04/30 06:32:13;;;;;;;6.80;6.20;;;;;;;;;;5035254;28;20044;-52
2023/04/30 06:34:38;;;;;;;9.15;6.82;;;;;;;;;;5035343;28;20120;-52
2023/04/30 06:37:03;;;;;;;7.15;6.45;;;;;;;;;;5035983;28;20028;-53
2023/04/30 06:39:29;;;;;;;8.88;6.88;;;;;;;;;;5035260;28;20017;-53
2023/04/30 06:41:54;;;;;;;7.57;6.10;;;;;;;;;;5035473;28;20033;-53
2023/04/30 06:44:20;;;;;;;7.55;6.75;;;;;;;;;;5017911;28;20597;-58
2023/04/30 06:46:45;;;;;;;7.22;5.90;;;;;;;;;;5017877;28;20029;-58
2023/04/30 06:49:11;;;;;;;7.38;5.97;;;;;;;;;;5035565;28;20025;-58
2023/04/30 06:51:36;;;;;;;6.07;5.47;;;;;;;;;;5016883;28;20068;-59
2023/04/30 06:54:02;;;;;;;9.45;6.38;;;;;;;;;;5029476;28;20022;-58
2023/04/30 06:56:27;;;;;;;6.82;5.82;;;;;;;;;;5014870;28;20034;-58
2023/04/30 06:58:52;;;;;;;7.47;5.80;;;;;;;;;;5014033;28;20026;-58
2023/04/30 07:01:18;;;;;;;6.45;5.55;;;;;;;;;;5026875;28;20555;-58
2023/04/30 07:03:43;;;;;;;5.60;5.10;;;;;;;;;;5034127;28;20024;-58
2023/04/30 07:06:09;;;;;;;6.90;5.28;;;;;;;;;;5035047;28;20517;-58
2023/04/30 07:08:35;;;;;;;5.60;4.45;;;;;;;;;;5035280;28;20024;-59
2023/04/30 07:11:00;;;;;;;7.30;5.95;;;;;;;;;;5034657;28;20403;-59
2023/04/30 07:13:25;;;;;;;5.80;5.00;;;;;;;;;;5016312;28;20087;-59
2023/04/30 07:15:51;;;;;;;7.80;6.05;;;;;;;;;;5034200;28;20471;-59
2023/04/30 07:18:16;;;;;;;6.72;4.78;;;;;;;;;;5034106;28;20077;-59
2023/04/30 07:20:42;;;;;;;10.43;7.80;;;;;;;;;;5033786;28;20392;-58
2023/04/30 07:23:07;;;;;;;9.05;6.00;;;;;;;;;;5033183;28;20029;-58
2023/04/30 07:25:33;;;;;;;5.22;4.18;;;;;;;;;;5033621;28;20108;-58
2023/04/30 07:27:59;;;;;;;5.78;4.00;;;;;;;;;;5033843;28;20032;-58
2023/04/30 07:30:24;;;;;;;17.08;9.15;;;;;;;;;;5033519;28;20196;-58
2023/04/30 07:32:49;;;;;;;6.22;5.25;;;;;;;;;;5033890;28;20041;-58
2023/04/30 07:35:15;;;;;;;17.25;7.95;;;;;;;;;;5033879;28;20028;-57
2023/04/30 07:37:42;;;;;;;5.28;4.88;;;;;;;;;;5033890;28;20037;-57
2023/04/30 07:40:11;;;;;;;12.57;7.03;;;;;;;;;;5032963;28;20017;-57
2023/04/30 07:42:38;;;;;;;9.48;4.70;;;;;;;;;;5033216;28;20025;-58
2023/04/30 07:45:04;;;;;;;10.07;6.72;;;;;;;;;;5033521;28;20029;-58
2023/04/30 07:47:29;;;;;;;4.28;3.83;;;;;;;;;;5033080;28;20391;-58
2023/04/30 07:49:56;;;;;;;4.22;3.78;;;;;;;;;;5015508;28;20041;-57
2023/04/30 07:52:21;;;;;;;6.38;5.72;;;;;;;;;;5032569;28;20025;-52
2023/04/30 07:54:46;;;;;;;8.50;5.32;;;;;;;;;;5033154;28;20032;-52
2023/04/30 07:57:12;;;;;;;5.43;3.92;;;;;;;;;;5032728;28;20465;-57
2023/04/30 07:59:37;;;;;;;8.32;4.60;;;;;;;;;;5032726;28;20026;-57
2023/04/30 08:02:02;;;;;;;4.55;3.83;;;;;;;;;;5032598;28;20400;-58
2023/04/30 08:04:28;;;;;;;4.40;4.00;;;;;;;;;;5030892;28;20041;-58
2023/04/30 08:06:53;;;;;;;4.43;3.90;;;;;;;;;;5014824;28;20032;-58
2023/04/30 08:09:18;;;;;;;5.22;4.22;;;;;;;;;;5032419;28;20427;-58
2023/04/30 08:11:44;;;;;;;4.30;3.85;;;;;;;;;;5032388;28;20037;-58
2023/04/30 08:14:09;;;;;;;4.40;3.90;;;;;;;;;;5032519;28;20061;-58
2023/04/30 08:16:34;;;;;;;4.03;3.72;;;;;;;;;;5032945;28;20025;-58
2023/04/30 08:19:00;;;;;;;3.90;3.60;;;;;;;;;;5033297;28;20025;-58
2023/04/30 08:21:27;;;;;;;3.83;3.42;;;;;;;;;;5033111;28;20064;-58
2023/04/30 08:23:53;;;;;;;4.15;3.13;;;;;;;;;;5005398;28;20503;-57
2023/04/30 08:26:18;;;;;;;4.00;3.30;;;;;;;;;;5023051;28;20026;-57
2023/04/30 08:28:44;;;;;;;5.93;3.45;;;;;;;;;;5013362;28;20037;-58
2023/04/30 08:31:09;;;;;;;4.32;3.40;;;;;;;;;;5013842;28;20032;-58
2023/04/30 08:33:34;;;;;;;4.63;3.40;;;;;;;;;;5013696;28;20403;-58
2023/04/30 08:36:00;;;;;;;2.90;2.55;;;;;;;;;;5013418;28;20469;-58
2023/04/30 08:38:26;;;;;;;6.38;3.28;;;;;;;;;;5011651;28;20026;-58
2023/04/30 08:40:55;;;;;;;3.03;2.65;;;;;;;;;;5011674;28;20088;-58
2023/04/30 08:43:21;;;;;;;3.78;2.72;;;;;;;;;;5011927;28;20036;-58
2023/04/30 08:45:47;;;;;;;3.60;3.28;;;;;;;;;;4995380;28;20412;-58
2023/04/30 08:48:15;;;;;;;3.50;3.20;;;;;;;;;;5012983;28;20080;-58
2023/04/30 08:50:40;;;;;;;5.80;4.10;;;;;;;;;;5012941;28;20034;-58
2023/04/30 08:53:07;;;;;;;8.07;4.95;;;;;;;;;;5013371;28;20461;-58
2023/04/30 08:55:33;;;;;;;4.43;3.20;;;;;;;;;;5013867;28;20080;-57
2023/04/30 08:57:58;;;;;;;4.53;2.72;;;;;;;;;;5013564;28;20469;-57
2023/04/30 09:00:25;;;;;;;2.75;2.45;;;;;;;;;;4995708;28;20045;-58
2023/04/30 09:02:51;;;;;;;3.50;3.15;;;;;;;;;;5013806;28;20113;-58
2023/04/30 09:05:16;;;;;;;3.42;2.95;;;;;;;;;;5013772;28;20148;-58
2023/04/30 09:07:42;;;;;;;3.40;2.78;;;;;;;;;;5013447;28;20460;-58
2023/04/30 09:10:18;;;;;;;4.28;2.38;;;;;;;;;;5013712;28;20030;-57
2023/04/30 09:12:44;;;;;;;5.28;2.72;;;;;;;;;;4995695;28;20476;-58
2023/04/30 09:15:10;;;;;;;3.63;2.38;;;;;;;;;;5016100;28;20020;-58
2023/04/30 09:17:35;;;;;;;3.00;2.67;;;;;;;;;;5017330;28;20029;-58
2023/04/30 09:20:08;;;;;;;3.20;2.53;;;;;;;;;;5016972;28;20033;-58
2023/04/30 09:22:34;;;;;;;3.40;3.08;;;;;;;;;;5017452;28;20033;-58
2023/04/30 09:24:59;;;;;;;4.65;3.17;;;;;;;;;;5017214;28;20038;-58
2023/04/30 09:27:26;;;;;;;4.75;2.63;;;;;;;;;;5017090;28;20034;-58
2023/04/30 09:29:51;;;;;;;3.25;2.75;;;;;;;;;;5016808;28;20042;-58
2023/04/30 09:32:18;;;;;;;3.20;2.67;;;;;;;;;;5016961;28;20045;-57
2023/04/30 09:34:43;;;;;;;3.85;2.55;;;;;;;;;;5016704;28;20026;-58
2023/04/30 09:37:09;;;;;;;4.63;2.67;;;;;;;;;;5016961;28;20037;-57
2023/04/30 09:39:48;;;;;;;3.95;2.63;;;;;;;;;;5016891;28;20530;-58
2023/04/30 09:42:13;;;;;;;2.67;2.45;;;;;;;;;;5016860;28;20067;-58
2023/04/30 09:44:40;;;;;;;2.72;2.38;;;;;;;;;;5016551;28;20038;-58
2023/04/30 09:47:18;;;;;;;4.03;2.80;;;;;;;;;;4998913;28;20037;-58
2023/04/30 09:49:50;;;;;;;3.40;2.55;;;;;;;;;;5016465;28;20029;-58
2023/04/30 09:52:15;;;;;;;2.95;2.65;;;;;;;;;;5016854;28;20109;-58
2023/04/30 09:54:42;;;;;;;1.98;1.85;;;;;;;;;;5016364;28;20136;-57
2023/04/30 09:57:09;;;;;;;2.42;2.22;;;;;;;;;;5016561;28;20034;-57
2023/04/30 09:59:36;;;;;;;3.47;3.17;;;;;;;;;;5016533;28;20018;-58
2023/04/30 10:02:02;;;;;;;4.68;3.00;;;;;;;;;;5016055;28;20096;-58
2023/04/30 10:04:29;;;;;;;3.17;2.67;;;;;;;;;;5016484;28;20034;-58
2023/04/30 10:06:56;;;;;;;3.40;2.38;;;;;;;;;;4998668;28;20452;-58
2023/04/30 10:09:23;;;;;;;2.63;2.33;;;;;;;;;;5016622;28;20042;-58
2023/04/30 10:11:49;;;;;;;4.20;2.25;;;;;;;;;;5016199;28;20413;-58
2023/04/30 10:14:16;;;;;;;3.70;2.50;;;;;;;;;;5015971;28;20057;-58
2023/04/30 10:16:50;;;;;;;2.72;2.30;;;;;;;;;;5016731;28;20455;-58
2023/04/30 10:19:18;;;;;;;2.88;2.60;;;;;;;;;;5016168;28;20379;-58
2023/04/30 10:21:45;;;;;;;5.07;2.83;;;;;;;;;;5016049;28;20029;-58
2023/04/30 10:24:12;;;;;;;4.80;2.10;;;;;;;;;;5016416;28;20044;-58
2023/04/30 10:26:37;;;;;;;4.40;2.00;;;;;;;;;;5015718;28;20030;-58
2023/04/30 10:29:04;;;;;;;3.25;2.05;;;;;;;;;;5015862;28;20037;-58
2023/04/30 10:31:29;;;;;;;3.15;2.10;;;;;;;;;;5015250;28;20030;-58
2023/04/30 10:33:55;;;;;;;2.42;1.85;;;;;;;;;;5014600;28;20424;-58
2023/04/30 10:36:43;;;;;;;2.90;2.60;;;;;;;;;;5019081;28;20431;-58
2023/04/30 10:39:09;;;;;;;6.18;2.58;;;;;;;;;;5025394;28;20108;-58
2023/04/30 10:41:34;;;;;;;3.05;2.70;;;;;;;;;;5025294;28;20033;-58
2023/04/30 10:44:01;;;;;;;3.67;2.50;;;;;;;;;;5024589;28;20372;-58
2023/04/30 10:46:27;;;;;;;4.20;2.47;;;;;;;;;;5004914;28;20057;-58
2023/04/30 10:48:53;;;;;;;4.05;2.40;;;;;;;;;;5023683;28;20116;-58
2023/04/30 10:51:19;;;;;;;5.25;2.53;;;;;;;;;;5024272;28;20033;-58
2023/04/30 10:53:46;;;;;;;2.40;2.10;;;;;;;;;;5022395;28;20026;-52
2023/04/30 10:56:12;;;;;;;2.72;2.08;;;;;;;;;;5023745;28;20021;-52
2023/04/30 10:58:38;;;;;;;3.95;2.47;;;;;;;;;;5023954;28;20583;-57
2023/04/30 11:01:03;;;;;;;2.97;2.78;;;;;;;;;;5022075;28;20427;-58
2023/04/30 11:03:30;;;;;;;2.65;1.80;;;;;;;;;;5024005;28;20075;-58
2023/04/30 11:05:55;;;;;;;2.80;2.50;;;;;;;;;;5023661;28;20113;-57
2023/04/30 11:08:37;;;;;;;5.28;2.35;;;;;;;;;;5023035;28;20126;-57
2023/04/30 11:11:04;;;;;;;2.35;2.10;;;;;;;;;;5024457;28;20029;-57
2023/04/30 11:13:39;;;;;;;2.10;1.90;;;;;;;;;;5021476;28;20013;-58
2023/04/30 11:16:05;;;;;;;2.00;1.90;;;;;;;;;;5015121;28;20038;-58
2023/04/30 11:18:40;;;;;;;3.05;2.00;;;;;;;;;;5014916;28;20172;-58
2023/04/30 11:21:07;;;;;;;3.85;1.92;;;;;;;;;;5014808;28;20037;-58
2023/04/30 11:23:32;;;;;;;2.80;2.10;;;;;;;;;;4997129;28;20037;-57
2023/04/30 11:25:59;;;;;;;2.97;1.73;;;;;;;;;;5014548;28;20032;-58
2023/04/30 11:28:26;;;;;;;1.40;1.30;;;;;;;;;;5014876;28;20357;-58
2023/04/30 11:30:53;;;;;;;3.58;1.50;;;;;;;;;;5018160;28;20030;-58
2023/04/30 11:33:19;;;;;;;3.47;1.67;;;;;;;;;;5021425;28;20022;-58
2023/04/30 11:35:44;;;;;;;3.85;2.13;;;;;;;;;;5022993;28;20025;-52
2023/04/30 11:38:12;;;;;;;2.88;2.00;;;;;;;;;;5022763;28;20026;-57
2023/04/30 11:40:38;;;;;;;3.78;2.10;;;;;;;;;;5021500;28;20018;-52
2023/04/30 11:43:03;;;;;;;3.05;1.73;;;;;;;;;;5022382;28;20112;-57
2023/04/30 11:45:29;;;;;;;1.80;1.70;;;;;;;;;;5023052;28;20030;-53
2023/04/30 11:47:55;;;;;;;1.50;1.40;;;;;;;;;;5021232;28;20038;-52
2023/04/30 11:50:28;;;;;;;3.05;2.15;;;;;;;;;;5017953;28;20049;-52
2023/04/30 11:52:54;;;;;;;2.33;1.70;;;;;;;;;;5014077;28;20025;-52
2023/04/30 11:55:20;;;;;;;5.60;1.90;;;;;;;;;;5013771;28;20474;-52
2023/04/30 11:57:48;;;;;;;4.15;2.00;;;;;;;;;;5013730;28;20073;-52
2023/04/30 12:00:13;;;;;;;5.30;2.10;;;;;;;;;;5013581;28;20073;-52
2023/04/30 12:02:39;;;;;;;4.45;1.67;;;;;;;;;;5013689;28;20457;-52
2023/04/30 12:05:11;;;;;;;1.98;1.88;;;;;;;;;;4996039;28;20038;-52
2023/04/30 12:07:36;;;;;;;4.45;2.00;;;;;;;;;;5013675;28;20037;-52
2023/04/30 12:10:02;;;;;;;3.00;1.92;;;;;;;;;;5013702;28;20022;-52
2023/04/30 12:12:28;;;;;;;2.70;1.77;;;;;;;;;;5013392;28;20578;-52
2023/04/30 12:14:54;;;;;;;3.20;1.90;;;;;;;;;;5013567;28;20600;-52
2023/04/30 12:17:30;;;;;;;3.55;1.95;;;;;;;;;;4995564;28;20042;-52
2023/04/30 12:19:55;;;;;;;3.85;1.85;;;;;;;;;;4995942;28;20030;-52
2023/04/30 12:22:21;;;;;;;2.10;1.55;;;;;;;;;;4996145;28;20079;-52
2023/04/30 12:24:48;;;;;;;2.97;1.70;;;;;;;;;;5013485;28;20465;-52
2023/04/30 12:27:13;;;;;;;3.88;1.73;;;;;;;;;;5012785;28;20037;-52
2023/04/30 12:29:43;;;;;;;3.35;1.80;;;;;;;;;;5012860;28;20025;-52
2023/04/30 12:32:08;;;;;;;3.97;2.05;;;;;;;;;;5013828;28;20410;-52
2023/04/30 12:34:36;;;;;;;2.17;1.60;;;;;;;;;;5013153;28;20034;-53
2023/04/30 12:37:01;;;;;;;2.15;1.77;;;;;;;;;;5013256;28;20030;-52
2023/04/30 12:39:32;;;;;;;3.85;1.60;;;;;;;;;;5010761;28;20116;-51
2023/04/30 12:41:58;;;;;;;1.70;1.60;;;;;;;;;;5012932;28;20061;-52
2023/04/30 12:44:25;;;;;;;2.17;1.60;;;;;;;;;;5012092;28;20045;-52
2023/04/30 12:46:59;;;;;;;2.65;1.65;;;;;;;;;;5011734;28;20036;-52
2023/04/30 12:49:28;;;;;;;2.67;1.73;;;;;;;;;;5013087;28;20114;-52
2023/04/30 12:52:02;;;;;;;1.52;1.42;;;;;;;;;;5014831;28;20424;-52
2023/04/30 12:54:29;;;;;;;2.95;1.52;;;;;;;;;;5015102;28;20072;-52
2023/04/30 12:57:00;;;;;;;2.63;1.52;;;;;;;;;;4997398;28;20030;-52
2023/04/30 12:59:25;;;;;;;3.58;1.90;;;;;;;;;;5016440;28;20033;-52
2023/04/30 13:01:53;;;;;;;3.00;1.58;;;;;;;;;;5017320;28;20096;-52
2023/04/30 13:04:19;;;;;;;3.05;1.95;;;;;;;;;;5017265;28;20034;-52
2023/04/30 13:06:44;;;;;;;2.92;1.92;;;;;;;;;;5015794;28;20045;-52
2023/04/30 13:09:11;;;;;;;3.30;2.38;;;;;;;;;;5015520;28;20080;-52
2023/04/30 13:11:36;;;;;;;5.93;3.30;;;;;;;;;;5016055;28;20037;-52
2023/04/30 13:14:01;;;;;;;2.15;1.83;;;;;;;;;;5015865;28;20056;-52
2023/04/30 13:16:27;;;;;;;3.25;1.42;;;;;;;;;;5016324;28;20026;-52
2023/04/30 13:18:53;;;;;;;2.15;1.40;;;;;;;;;;4998074;28;20495;-52
2023/04/30 13:21:19;;;;;;;1.63;1.50;;;;;;;;;;5015008;28;20034;-52
2023/04/30 13:23:45;;;;;;;4.75;1.83;;;;;;;;;;5015214;28;20049;-52
2023/04/30 13:26:10;;;;;;;1.60;1.50;;;;;;;;;;5014929;28;20034;-52
2023/04/30 13:28:36;;;;;;;2.13;1.38;;;;;;;;;;5014803;28;20072;-52
2023/04/30 13:31:01;;;;;;;3.67;1.63;;;;;;;;;;5014877;28;20026;-52
2023/04/30 13:33:27;;;;;;;1.67;1.52;;;;;;;;;;5015052;28;20383;-52
2023/04/30 13:35:53;;;;;;;1.83;1.60;;;;;;;;;;5017013;28;20081;-52
2023/04/30 13:38:18;;;;;;;2.28;1.52;;;;;;;;;;5016702;28;20558;-52
2023/04/30 13:40:44;;;;;;;2.25;1.50;;;;;;;;;;5016642;28;20029;-52
2023/04/30 13:43:09;;;;;;;2.78;1.67;;;;;;;;;;5016892;28;20029;-52
2023/04/30 13:45:35;;;;;;;2.22;1.48;;;;;;;;;;4999057;28;20472;-52
2023/04/30 13:48:00;;;;;;;1.50;1.40;;;;;;;;;;5016492;28;20030;-52
2023/04/30 13:50:25;;;;;;;2.78;1.65;;;;;;;;;;5016447;28;20041;-52
2023/04/30 13:52:51;;;;;;;1.30;1.20;;;;;;;;;;4998719;28;20073;-52
2023/04/30 13:55:17;;;;;;;3.40;1.58;;;;;;;;;;5016332;28;20022;-52
2023/04/30 13:57:42;;;;;;;2.05;1.30;;;;;;;;;;5016370;28;20528;-52
2023/04/30 14:00:07;;;;;;;4.50;1.23;;;;;;;;;;5015919;28;20117;-52
2023/04/30 14:02:33;;;;;;;2.10;1.65;;;;;;;;;;5016206;28;20052;-52
2023/04/30 14:05:02;;;;;;;1.75;1.45;;;;;;;;;;5016181;28;20084;-52
2023/04/30 14:07:27;;;;;;;2.30;1.45;;;;;;;;;;5016183;28;20121;-52
2023/04/30 14:09:52;;;;;;;3.25;1.58;;;;;;;;;;5016409;28;20109;-52
2023/04/30 14:12:20;;;;;;;2.60;1.40;;;;;;;;;;5016026;28;20464;-52
2023/04/30 14:14:45;;;;;;;3.15;1.40;;;;;;;;;;5016300;28;20030;-52
2023/04/30 14:17:11;;;;;;;4.13;1.80;;;;;;;;;;5015992;28;20038;-52
2023/04/30 14:19:36;;;;;;;2.75;1.80;;;;;;;;;;5016209;28;20014;-52
2023/04/30 14:22:01;;;;;;;2.67;1.50;;;;;;;;;;5015907;28;20092;-52
2023/04/30 14:24:27;;;;;;;3.40;1.98;;;;;;;;;;4998596;28;20030;-52
2023/04/30 14:26:52;;;;;;;1.92;1.50;;;;;;;;;;5015790;28;20030;-52
2023/04/30 14:29:18;;;;;;;1.58;1.40;;;;;;;;;;5016016;28;20034;-52
2023/04/30 14:31:43;;;;;;;1.80;1.45;;;;;;;;;;5015908;28;20464;-52
2023/04/30 14:34:09;;;;;;;2.80;1.20;;;;;;;;;;5015992;28;20050;-52
2023/04/30 14:36:35;;;;;;;3.28;1.38;;;;;;;;;;5015583;28;20486;-52
2023/04/30 14:39:02;;;;;;;2.33;1.58;;;;;;;;;;5015819;28;20018;-52
2023/04/30 14:41:28;;;;;;;2.80;1.70;;;;;;;;;;5015496;28;20018;-52